Time;durP1;ratioP1;P1;durP2;ratioP2;P2;SDS_P1;SDS_P2;PMS_P1;PMS_P2;Temp;Humidity;BMP_temperature;BMP_pressure;BME280_temperature;BME280_humidity;BME280_pressure;Samples;Min_cycle;Max_cycle;Signal;HPM_P1;HPM_P2
2023/08/05 00:01:37;;;;;;;1.40;1.00;;;17.80;83.30;;;;;;4937925;28;20122;-61
2023/08/05 00:04:03;;;;;;;0.95;0.95;;;17.70;83.20;;;;;;4938972;28;20039;-61
2023/08/05 00:06:28;;;;;;;1.40;1.30;;;17.80;83.40;;;;;;4937619;28;20043;-60
2023/08/05 00:08:54;;;;;;;1.30;1.10;;;17.80;83.40;;;;;;4936125;28;20070;-61
2023/08/05 00:11:19;;;;;;;1.25;1.15;;;17.80;83.40;;;;;;4939677;28;20115;-63
2023/08/05 00:13:45;;;;;;;1.38;1.27;;;17.80;83.40;;;;;;4936922;28;20408;-61
2023/08/05 00:16:11;;;;;;;3.92;1.55;;;17.80;83.40;;;;;;4937586;28;20399;-61
2023/08/05 00:18:37;;;;;;;1.40;1.30;;;17.80;83.50;;;;;;4936709;28;20079;-60
2023/08/05 00:21:02;;;;;;;1.52;1.30;;;17.80;83.50;;;;;;4938389;28;20065;-61
2023/08/05 00:23:28;;;;;;;7.82;1.50;;;17.80;83.60;;;;;;4938130;28;20419;-59
2023/08/05 00:25:53;;;;;;;1.38;1.30;;;17.80;83.50;;;;;;4937969;28;20046;-61
2023/08/05 00:28:19;;;;;;;1.90;1.80;;;17.80;83.50;;;;;;4936241;28;20445;-60
2023/08/05 00:30:44;;;;;;;2.83;1.63;;;17.90;83.50;;;;;;4936295;28;20050;-61
2023/08/05 00:33:10;;;;;;;2.22;2.03;;;17.80;83.40;;;;;;4936670;29;20039;-61
2023/08/05 00:35:35;;;;;;;2.10;1.90;;;17.90;83.60;;;;;;4937381;28;20043;-61
2023/08/05 00:38:01;;;;;;;2.63;2.17;;;17.90;83.60;;;;;;4933053;28;20043;-60
2023/08/05 00:40:26;;;;;;;2.83;2.05;;;17.90;83.80;;;;;;4938707;28;20134;-61
2023/08/05 00:42:52;;;;;;;2.67;2.45;;;17.90;83.70;;;;;;4938767;28;20035;-61
2023/08/05 00:45:18;;;;;;;2.75;2.53;;;17.80;83.80;;;;;;4934975;28;20427;-61
2023/08/05 00:47:43;;;;;;;3.10;2.85;;;17.80;83.90;;;;;;4936152;28;20038;-59
2023/08/05 00:50:11;;;;;;;3.47;3.13;;;17.80;84.00;;;;;;4935379;28;20276;-60
2023/08/05 00:52:38;;;;;;;4.32;3.25;;;17.80;84.10;;;;;;4936198;28;20036;-60
2023/08/05 00:55:04;;;;;;;4.25;3.85;;;17.80;84.30;;;;;;4939654;28;20166;-59
2023/08/05 00:57:30;;;;;;;5.40;3.67;;;17.80;84.50;;;;;;4938689;28;20050;-60
2023/08/05 00:59:56;;;;;;;4.85;4.30;;;17.80;84.60;;;;;;4940190;28;20051;-61
2023/08/05 01:02:21;;;;;;;4.50;4.10;;;17.70;84.60;;;;;;4944151;28;20044;-61
2023/08/05 01:04:47;;;;;;;4.40;4.00;;;17.70;84.70;;;;;;4939687;28;20110;-61
2023/08/05 01:07:13;;;;;;;5.07;4.55;;;17.80;85.00;;;;;;4939712;28;20420;-61
2023/08/05 01:09:39;;;;;;;6.28;4.90;;;17.70;84.90;;;;;;4939093;28;20031;-61
2023/08/05 01:12:05;;;;;;;5.75;4.55;;;17.70;85.00;;;;;;4940332;28;20070;-58
2023/08/05 01:14:31;;;;;;;5.10;4.60;;;17.80;85.00;;;;;;4939298;28;20039;-58
2023/08/05 01:16:57;;;;;;;4.40;3.97;;;17.80;85.10;;;;;;4936996;28;20102;-64
2023/08/05 01:19:24;;;;;;;6.03;4.90;;;17.80;85.00;;;;;;4939208;28;20678;-62
2023/08/05 01:22:13;;;;;;;6.50;4.78;;;17.80;85.00;;;;;;4929515;28;20511;-61
2023/08/05 01:24:51;;;;;;;8.88;4.95;;;17.80;85.50;;;;;;4937906;28;20422;-62
2023/08/05 01:27:17;;;;;;;6.15;4.80;;;17.90;85.00;;;;;;4936979;28;20122;-61
2023/08/05 01:29:43;;;;;;;6.28;4.85;;;17.80;84.60;;;;;;4938607;28;20694;-61
2023/08/05 01:32:10;;;;;;;7.60;5.43;;;17.80;84.80;;;;;;4936389;28;20653;-60
2023/08/05 01:34:37;;;;;;;5.53;5.00;;;17.80;84.70;;;;;;4938974;28;20031;-61
2023/08/05 01:37:03;;;;;;;6.22;5.25;;;17.80;84.80;;;;;;4938935;28;20039;-60
2023/08/05 01:39:29;;;;;;;5.78;4.90;;;17.80;84.80;;;;;;4939657;28;20058;-59
2023/08/05 01:41:54;;;;;;;6.70;5.32;;;17.70;84.90;;;;;;4939187;28;20487;-59
2023/08/05 01:44:20;;;;;;;5.60;5.10;;;17.70;85.00;;;;;;4939120;28;20071;-61
2023/08/05 01:46:46;;;;;;;5.40;4.90;;;17.70;85.00;;;;;;4939507;28;20086;-62
2023/08/05 01:49:11;;;;;;;5.85;4.85;;;17.80;85.10;;;;;;4939977;28;20047;-59
2023/08/05 01:51:37;;;;;;;5.10;4.60;;;17.70;85.00;;;;;;4937122;28;20039;-60
2023/08/05 01:54:03;;;;;;;4.78;4.35;;;17.70;85.00;;;;;;4939836;28;20035;-59
2023/08/05 01:56:28;;;;;;;5.45;4.20;;;17.70;84.80;;;;;;4936993;28;20390;-58
2023/08/05 01:58:54;;;;;;;4.90;4.40;;;17.70;84.80;;;;;;4937391;28;20255;-60
2023/08/05 02:01:19;;;;;;;4.10;3.70;;;17.70;84.90;;;;;;4937921;28;20054;-61
2023/08/05 02:03:45;;;;;;;3.75;3.28;;;17.70;84.90;;;;;;4935600;28;20115;-61
2023/08/05 02:06:10;;;;;;;3.78;3.47;;;17.70;84.80;;;;;;4941649;28;20356;-62
2023/08/05 02:08:36;;;;;;;3.70;3.40;;;17.70;84.80;;;;;;4937543;28;20312;-64
2023/08/05 02:11:03;;;;;;;3.28;3.05;;;17.70;84.60;;;;;;4937404;28;20086;-63
2023/08/05 02:13:29;;;;;;;3.50;3.20;;;17.70;84.50;;;;;;4937293;28;20036;-62
2023/08/05 02:15:54;;;;;;;3.40;3.17;;;17.70;84.40;;;;;;4937891;28;20046;-61
2023/08/05 02:18:20;;;;;;;3.60;3.30;;;17.60;84.30;;;;;;4939724;28;20551;-61
2023/08/05 02:20:45;;;;;;;4.05;3.30;;;17.60;84.30;;;;;;4936685;28;20043;-61
2023/08/05 02:23:11;;;;;;;3.58;3.28;;;17.60;84.30;;;;;;4940980;28;20031;-62
2023/08/05 02:25:36;;;;;;;3.65;3.35;;;17.60;84.20;;;;;;4936634;28;20502;-63
2023/08/05 02:28:02;;;;;;;5.03;3.53;;;17.60;84.20;;;;;;4937846;28;20050;-61
2023/08/05 02:30:28;;;;;;;5.32;4.22;;;17.60;84.10;;;;;;4937633;28;20067;-64
2023/08/05 02:32:53;;;;;;;5.40;3.80;;;17.60;84.10;;;;;;4938357;28;20119;-63
2023/08/05 02:35:19;;;;;;;5.15;4.30;;;17.60;84.00;;;;;;4939545;28;20389;-63
2023/08/05 02:37:44;;;;;;;6.68;4.75;;;17.50;84.10;;;;;;4939938;28;20119;-61
2023/08/05 02:40:10;;;;;;;6.47;4.68;;;17.50;84.10;;;;;;4935663;28;20035;-63
2023/08/05 02:42:36;;;;;;;4.47;4.07;;;17.50;84.10;;;;;;4939559;28;20086;-62
2023/08/05 02:45:02;;;;;;;6.63;4.75;;;17.50;84.10;;;;;;4938573;28;20067;-63
2023/08/05 02:47:28;;;;;;;7.03;5.57;;;17.50;84.10;;;;;;4936404;28;20035;-63
2023/08/05 02:49:54;;;;;;;6.15;5.13;;;17.50;84.20;;;;;;4939508;28;20559;-63
2023/08/05 02:52:19;;;;;;;5.47;4.97;;;17.50;84.10;;;;;;4937957;28;20059;-63
2023/08/05 02:54:45;;;;;;;5.75;5.22;;;17.50;84.10;;;;;;4937963;28;20047;-62
2023/08/05 02:57:10;;;;;;;5.53;4.88;;;17.50;84.00;;;;;;4938952;28;20074;-64
2023/08/05 02:59:37;;;;;;;6.68;5.43;;;17.50;84.00;;;;;;4937831;28;20039;-64
2023/08/05 03:02:03;;;;;;;7.93;5.30;;;17.50;84.00;;;;;;4935867;28;20046;-63
2023/08/05 03:04:28;;;;;;;6.78;5.57;;;17.50;83.80;;;;;;4937102;28;20039;-62
2023/08/05 03:06:54;;;;;;;8.27;5.00;;;17.50;83.80;;;;;;4940767;28;20412;-61
2023/08/05 03:09:20;;;;;;;8.02;5.40;;;17.50;83.80;;;;;;4939172;28;20036;-63
2023/08/05 03:11:45;;;;;;;6.32;5.28;;;17.50;83.80;;;;;;4940036;28;20032;-63
2023/08/05 03:14:11;;;;;;;5.97;5.07;;;17.50;83.90;;;;;;4936842;28;20035;-62
2023/08/05 03:16:37;;;;;;;6.03;5.18;;;17.50;83.90;;;;;;4934768;28;20118;-61
2023/08/05 03:19:03;;;;;;;8.45;5.35;;;17.50;84.80;;;;;;4937765;28;20500;-61
2023/08/05 03:21:28;;;;;;;7.68;5.85;;;17.50;83.80;;;;;;4936723;28;20039;-63
2023/08/05 03:23:54;;;;;;;5.93;5.30;;;17.40;83.70;;;;;;4937715;28;20035;-62
2023/08/05 03:26:20;;;;;;;6.43;5.50;;;17.50;83.70;;;;;;4937846;28;20039;-63
2023/08/05 03:28:45;;;;;;;6.85;5.15;;;17.50;83.60;;;;;;4937172;28;20381;-61
2023/08/05 03:31:11;;;;;;;6.15;5.55;;;17.50;83.60;;;;;;4937142;28;20038;-63
2023/08/05 03:33:36;;;;;;;7.03;5.82;;;17.50;83.50;;;;;;4935845;28;20060;-63
2023/08/05 03:36:02;;;;;;;6.40;5.45;;;17.50;83.60;;;;;;4938172;28;20067;-62
2023/08/05 03:38:27;;;;;;;7.10;5.90;;;17.50;83.60;;;;;;4936506;28;20938;-60
2023/08/05 03:40:53;;;;;;;5.75;4.75;;;17.50;83.60;;;;;;4936247;28;20043;-62
2023/08/05 03:43:19;;;;;;;8.55;5.35;;;17.50;83.40;;;;;;4937292;28;20487;-60
2023/08/05 03:45:53;;;;;;;6.55;5.13;;;17.50;83.40;;;;;;4936899;28;20046;-63
2023/08/05 03:48:19;;;;;;;6.45;5.40;;;17.50;83.60;;;;;;4936568;28;20744;-63
2023/08/05 03:50:45;;;;;;;7.28;5.00;;;17.50;83.60;;;;;;4935228;28;20094;-63
2023/08/05 03:53:10;;;;;;;6.40;5.15;;;17.50;83.50;;;;;;4937109;28;20062;-62
2023/08/05 03:55:36;;;;;;;6.50;5.38;;;17.50;83.50;;;;;;4938431;28;20523;-62
2023/08/05 03:58:01;;;;;;;7.38;5.32;;;17.50;83.30;;;;;;4934776;28;20565;-60
2023/08/05 04:00:28;;;;;;;6.70;5.28;;;17.50;83.10;;;;;;4937505;28;20403;-61
2023/08/05 04:02:54;;;;;;;6.82;5.40;;;17.50;83.10;;;;;;4934762;28;20031;-61
2023/08/05 04:05:19;;;;;;;6.57;5.22;;;17.50;83.10;;;;;;4939284;28;20078;-63
2023/08/05 04:07:46;;;;;;;6.15;5.35;;;17.50;83.10;;;;;;4934683;28;20040;-63
2023/08/05 04:10:13;;;;;;;7.22;5.90;;;17.50;83.30;;;;;;4938114;28;20123;-63
2023/08/05 04:12:38;;;;;;;7.57;5.97;;;17.50;83.30;;;;;;4937468;28;20039;-62
2023/08/05 04:15:06;;;;;;;7.20;5.63;;;17.50;83.30;;;;;;4935402;28;20597;-63
2023/08/05 04:17:32;;;;;;;7.85;5.97;;;17.50;83.30;;;;;;4935149;28;20036;-60
2023/08/05 04:19:58;;;;;;;6.47;5.78;;;17.50;83.30;;;;;;4936384;28;20452;-61
2023/08/05 04:22:25;;;;;;;9.27;6.13;;;17.40;83.30;;;;;;4937274;28;20036;-62
2023/08/05 04:24:51;;;;;;;8.73;6.18;;;17.40;83.40;;;;;;4935247;28;20102;-61
2023/08/05 04:27:17;;;;;;;7.45;6.00;;;17.40;83.40;;;;;;4939470;28;20515;-62
2023/08/05 04:29:43;;;;;;;8.20;6.70;;;17.40;83.60;;;;;;4939706;28;20158;-61
2023/08/05 04:32:08;;;;;;;7.57;6.43;;;17.40;83.60;;;;;;4939659;28;20072;-63
2023/08/05 04:34:37;;;;;;;8.50;6.88;;;17.40;83.80;;;;;;4940401;28;20039;-61
2023/08/05 04:37:21;;;;;;;8.02;7.22;;;17.40;83.70;;;;;;4935539;28;20039;-61
2023/08/05 04:39:48;;;;;;;8.27;6.43;;;17.40;84.10;;;;;;4941275;28;20107;-61
2023/08/05 04:42:14;;;;;;;8.65;6.40;;;17.40;83.70;;;;;;4937180;28;20059;-63
2023/08/05 04:44:41;;;;;;;8.55;6.40;;;17.50;83.80;;;;;;4940203;28;20062;-63
2023/08/05 04:47:08;;;;;;;7.57;6.78;;;17.50;83.80;;;;;;4940410;28;20039;-61
2023/08/05 04:49:34;;;;;;;9.45;6.80;;;17.40;83.60;;;;;;4939774;28;20456;-63
2023/08/05 04:51:59;;;;;;;7.75;6.82;;;17.50;83.70;;;;;;4939487;28;20047;-63
2023/08/05 04:54:25;;;;;;;7.22;6.50;;;17.50;83.80;;;;;;4941301;28;20043;-62
2023/08/05 04:56:50;;;;;;;6.85;6.15;;;17.50;83.70;;;;;;4940228;28;20515;-62
2023/08/05 04:59:16;;;;;;;8.07;6.50;;;17.50;83.70;;;;;;4937278;28;20038;-62
2023/08/05 05:01:41;;;;;;;8.20;6.25;;;17.50;83.60;;;;;;4938597;28;20046;-63
2023/08/05 05:04:07;;;;;;;7.85;6.43;;;17.50;83.50;;;;;;4939380;28;20042;-62
2023/08/05 05:06:33;;;;;;;8.60;6.80;;;17.50;83.50;;;;;;4938916;28;20123;-62
2023/08/05 05:08:58;;;;;;;9.30;6.18;;;17.50;83.40;;;;;;4940667;29;20035;-62
2023/08/05 05:11:24;;;;;;;9.57;7.07;;;17.50;83.50;;;;;;4940779;28;20031;-61
2023/08/05 05:13:50;;;;;;;8.63;6.53;;;17.50;83.60;;;;;;4939247;28;20056;-64
2023/08/05 05:16:17;;;;;;;7.95;7.00;;;17.50;83.60;;;;;;4938260;28;20651;-62
2023/08/05 05:18:43;;;;;;;7.57;6.60;;;17.50;83.60;;;;;;4936608;28;20039;-63
2023/08/05 05:21:09;;;;;;;8.60;6.53;;;17.50;83.50;;;;;;4938912;28;20047;-62
2023/08/05 05:23:35;;;;;;;7.75;6.45;;;17.50;83.40;;;;;;4939292;28;20038;-62
2023/08/05 05:26:01;;;;;;;10.18;6.03;;;17.50;83.50;;;;;;4937684;28;20039;-62
2023/08/05 05:28:26;;;;;;;6.97;6.07;;;17.50;83.60;;;;;;4940800;28;20059;-62
2023/08/05 05:30:52;;;;;;;7.93;6.50;;;17.50;83.40;;;;;;4936241;28;20043;-62
2023/08/05 05:33:17;;;;;;;6.32;5.72;;;17.50;83.50;;;;;;4940069;28;20039;-62
2023/08/05 05:35:43;;;;;;;7.10;6.15;;;17.50;83.60;;;;;;4939452;28;20122;-62
2023/08/05 05:38:08;;;;;;;8.30;6.28;;;17.50;83.80;;;;;;4939787;28;20042;-63
2023/08/05 05:40:39;;;;;;;7.30;6.10;;;17.50;83.80;;;;;;4938392;28;20036;-63
2023/08/05 05:43:06;;;;;;;6.45;5.80;;;17.50;84.60;;;;;;4940088;28;20062;-62
2023/08/05 05:45:34;;;;;;;6.82;5.97;;;17.50;83.80;;;;;;4939989;28;20037;-63
2023/08/05 05:47:59;;;;;;;7.22;6.13;;;17.60;83.70;;;;;;4938580;28;20395;-60
2023/08/05 05:50:25;;;;;;;7.63;5.95;;;17.60;83.60;;;;;;4938168;28;20241;-63
2023/08/05 05:52:51;;;;;;;8.48;6.20;;;17.60;83.50;;;;;;4937456;28;20058;-61
2023/08/05 05:55:17;;;;;;;10.75;6.60;;;17.60;83.40;;;;;;4938699;28;20562;-61
2023/08/05 05:57:43;;;;;;;8.30;6.25;;;17.60;83.30;;;;;;4939396;28;20083;-63
2023/08/05 06:00:10;;;;;;;6.90;6.20;;;17.60;83.30;;;;;;4939027;28;20027;-60
2023/08/05 06:02:35;;;;;;;9.75;6.57;;;17.60;83.30;;;;;;4938738;28;20061;-63
2023/08/05 06:05:01;;;;;;;7.70;6.38;;;17.60;83.40;;;;;;4937575;28;20040;-62
2023/08/05 06:07:26;;;;;;;8.52;5.93;;;17.60;83.40;;;;;;4938317;28;20057;-63
2023/08/05 06:09:52;;;;;;;7.95;6.57;;;17.60;83.40;;;;;;4938751;28;20039;-62
2023/08/05 06:12:18;;;;;;;7.05;6.18;;;17.60;83.40;;;;;;4939559;28;20039;-62
2023/08/05 06:14:43;;;;;;;8.02;6.35;;;17.60;83.30;;;;;;4938139;28;20046;-62
2023/08/05 06:17:09;;;;;;;9.07;6.97;;;17.60;83.30;;;;;;4939534;28;20439;-63
2023/08/05 06:19:35;;;;;;;9.27;7.15;;;17.60;83.30;;;;;;4941143;28;20038;-61
2023/08/05 06:22:00;;;;;;;7.93;6.90;;;17.60;83.30;;;;;;4938745;28;20096;-62
2023/08/05 06:24:26;;;;;;;8.80;7.30;;;17.60;83.40;;;;;;4936537;28;20050;-63
2023/08/05 06:26:51;;;;;;;9.63;7.60;;;17.50;83.40;;;;;;4933614;28;20399;-63
2023/08/05 06:29:17;;;;;;;8.68;7.55;;;17.60;83.60;;;;;;4939582;28;20317;-63
2023/08/05 06:31:42;;;;;;;7.95;7.15;;;17.50;83.40;;;;;;4937110;28;20065;-64
2023/08/05 06:34:08;;;;;;;6.70;6.00;;;17.60;83.60;;;;;;4937672;28;20086;-64
2023/08/05 06:36:33;;;;;;;9.27;6.70;;;17.60;83.60;;;;;;4937039;28;20054;-63
2023/08/05 06:38:59;;;;;;;7.32;6.50;;;17.60;83.60;;;;;;4939176;28;20053;-63
2023/08/05 06:41:24;;;;;;;9.55;6.68;;;17.60;83.60;;;;;;4938486;28;20047;-63
2023/08/05 06:43:50;;;;;;;7.90;6.30;;;17.60;83.40;;;;;;4938088;28;20047;-62
2023/08/05 06:46:16;;;;;;;7.40;6.45;;;17.60;83.30;;;;;;4937844;28;20487;-62
2023/08/05 06:48:41;;;;;;;7.38;6.43;;;17.60;83.30;;;;;;4935920;28;20043;-60
2023/08/05 06:51:07;;;;;;;7.80;6.20;;;17.70;83.30;;;;;;4939976;28;20027;-62
2023/08/05 06:53:33;;;;;;;6.85;6.15;;;17.70;83.30;;;;;;4940297;28;20067;-63
2023/08/05 06:56:03;;;;;;;7.10;6.40;;;17.70;83.20;;;;;;4939397;28;20042;-62
2023/08/05 06:58:28;;;;;;;6.78;6.15;;;17.70;83.20;;;;;;4939086;28;20039;-62
2023/08/05 07:00:55;;;;;;;6.85;6.15;;;17.70;83.00;;;;;;4937620;28;20039;-61
2023/08/05 07:03:21;;;;;;;6.72;6.13;;;17.70;83.00;;;;;;4934962;28;20035;-61
2023/08/05 07:05:46;;;;;;;7.07;6.43;;;17.70;83.80;;;;;;4937573;28;20035;-62
2023/08/05 07:08:12;;;;;;;8.48;6.82;;;17.70;82.90;;;;;;4938355;28;20159;-62
2023/08/05 07:10:37;;;;;;;9.13;6.70;;;17.70;83.20;;;;;;4940063;28;20039;-63
2023/08/05 07:13:05;;;;;;;6.95;6.25;;;17.70;83.30;;;;;;4941744;28;20063;-60
2023/08/05 07:15:34;;;;;;;9.35;7.32;;;17.70;83.30;;;;;;4939261;28;20047;-62
2023/08/05 07:18:00;;;;;;;8.40;6.32;;;17.70;83.10;;;;;;4939552;28;20035;-62
2023/08/05 07:20:26;;;;;;;11.68;6.47;;;17.80;83.10;;;;;;4937703;28;20044;-62
2023/08/05 07:22:51;;;;;;;8.70;6.80;;;17.80;83.30;;;;;;4937980;28;20085;-61
2023/08/05 07:25:17;;;;;;;8.43;6.68;;;17.80;83.10;;;;;;4926163;28;20505;-63
2023/08/05 07:27:43;;;;;;;8.02;6.60;;;17.80;83.30;;;;;;4929987;28;20495;-63
2023/08/05 07:30:09;;;;;;;6.55;5.82;;;17.80;83.20;;;;;;4931031;28;20046;-63
2023/08/05 07:32:34;;;;;;;7.38;6.68;;;17.80;82.90;;;;;;4922938;28;21563;-63
2023/08/05 07:35:00;;;;;;;9.05;6.25;;;17.90;82.90;;;;;;4933627;28;20051;-60
2023/08/05 07:37:26;;;;;;;8.98;7.10;;;17.90;82.90;;;;;;4932714;28;20063;-62
2023/08/05 07:39:52;;;;;;;7.53;6.18;;;18.00;83.00;;;;;;4928072;28;20407;-62
2023/08/05 07:42:20;;;;;;;6.68;6.05;;;18.00;82.90;;;;;;4930673;28;20069;-59
2023/08/05 07:44:46;;;;;;;7.43;6.53;;;18.10;82.90;;;;;;4933670;28;20763;-63
2023/08/05 07:47:12;;;;;;;7.38;5.85;;;18.20;82.90;;;;;;4932324;28;20605;-63
2023/08/05 07:49:39;;;;;;;6.63;5.43;;;18.30;82.90;;;;;;4930650;28;20044;-63
2023/08/05 07:52:06;;;;;;;6.22;5.63;;;18.40;82.40;;;;;;4938786;28;20061;-61
2023/08/05 07:54:32;;;;;;;5.60;5.10;;;18.40;81.20;;;;;;4935354;28;20043;-64
2023/08/05 07:56:58;;;;;;;6.05;5.45;;;18.50;81.20;;;;;;4932591;28;20039;-58
2023/08/05 07:59:25;;;;;;;7.35;5.45;;;18.60;80.60;;;;;;4933864;28;20082;-63
2023/08/05 08:01:53;;;;;;;6.18;5.43;;;18.70;80.40;;;;;;4939220;28;20039;-62
2023/08/05 08:04:18;;;;;;;5.65;5.05;;;18.70;80.00;;;;;;4934974;28;20070;-63
2023/08/05 08:06:45;;;;;;;5.53;5.03;;;18.80;80.60;;;;;;4931568;28;20122;-62
2023/08/05 08:09:11;;;;;;;5.25;4.75;;;18.90;80.80;;;;;;4934735;28;20061;-63
2023/08/05 08:11:37;;;;;;;5.40;4.63;;;19.00;80.10;;;;;;4939480;28;20724;-62
2023/08/05 08:14:04;;;;;;;6.07;4.25;;;19.10;79.70;;;;;;4936547;28;20052;-63
2023/08/05 08:16:30;;;;;;;5.05;4.55;;;19.20;79.40;;;;;;4934760;28;20559;-63
2023/08/05 08:18:56;;;;;;;7.32;4.72;;;19.30;77.90;;;;;;4939813;28;20046;-63
2023/08/05 08:21:22;;;;;;;5.68;4.53;;;19.30;77.50;;;;;;4937448;28;20094;-61
2023/08/05 08:23:47;;;;;;;5.80;5.20;;;19.40;77.50;;;;;;4941255;28;20312;-62
2023/08/05 08:26:13;;;;;;;5.00;4.43;;;19.40;77.30;;;;;;4939660;28;20047;-61
2023/08/05 08:28:38;;;;;;;5.20;4.70;;;19.50;76.70;;;;;;4935956;28;20456;-61
2023/08/05 08:31:04;;;;;;;6.95;4.90;;;19.50;76.30;;;;;;4936083;28;20042;-62
2023/08/05 08:33:29;;;;;;;5.25;4.75;;;19.60;76.30;;;;;;4935920;28;20550;-61
2023/08/05 08:35:55;;;;;;;5.43;4.60;;;19.50;76.50;;;;;;4940207;28;20039;-63
2023/08/05 08:38:22;;;;;;;5.05;4.55;;;19.60;76.20;;;;;;4938311;28;20050;-60
2023/08/05 08:40:49;;;;;;;5.68;5.03;;;19.70;75.80;;;;;;4937800;28;20047;-63
2023/08/05 08:43:17;;;;;;;6.03;4.78;;;19.70;76.10;;;;;;4938920;28;20043;-61
2023/08/05 08:45:44;;;;;;;4.85;4.45;;;19.70;76.30;;;;;;4936699;28;20442;-63
2023/08/05 08:48:11;;;;;;;5.32;4.60;;;19.70;77.00;;;;;;4941600;28;20059;-63
2023/08/05 08:50:39;;;;;;;5.28;4.78;;;19.80;76.60;;;;;;4939895;28;20268;-63
2023/08/05 08:53:07;;;;;;;4.72;4.30;;;19.90;76.10;;;;;;4938791;28;20513;-62
2023/08/05 08:55:33;;;;;;;4.60;4.18;;;19.90;75.40;;;;;;4942634;28;20680;-61
2023/08/05 08:57:59;;;;;;;4.57;4.07;;;20.00;75.30;;;;;;4939222;28;20111;-63
2023/08/05 09:00:26;;;;;;;3.90;3.60;;;20.00;74.70;;;;;;4937170;28;20045;-63
2023/08/05 09:02:53;;;;;;;3.70;3.40;;;20.10;73.90;;;;;;4938418;28;20098;-63
2023/08/05 09:05:19;;;;;;;3.88;3.50;;;20.10;72.60;;;;;;4936289;28;20503;-62
2023/08/05 09:07:46;;;;;;;4.30;3.55;;;20.10;73.30;;;;;;4936517;28;20407;-64
2023/08/05 09:10:11;;;;;;;3.33;3.10;;;20.10;73.00;;;;;;4936770;28;20039;-61
2023/08/05 09:12:38;;;;;;;4.22;3.83;;;20.10;73.30;;;;;;4932863;28;20427;-61
2023/08/05 09:15:04;;;;;;;4.03;3.63;;;20.20;73.30;;;;;;4939460;28;20496;-62
2023/08/05 09:17:37;;;;;;;3.45;3.17;;;20.20;74.40;;;;;;4933766;28;20039;-63
2023/08/05 09:20:11;;;;;;;4.55;3.95;;;20.30;73.60;;;;;;4938102;28;20210;-63
2023/08/05 09:22:36;;;;;;;4.05;3.30;;;20.40;73.60;;;;;;4936085;28;20031;-63
2023/08/05 09:25:02;;;;;;;3.78;3.30;;;20.50;73.50;;;;;;4941047;28;20041;-61
2023/08/05 09:27:50;;;;;;;3.90;3.13;;;20.60;70.80;;;;;;4940686;28;20035;-63
2023/08/05 09:30:17;;;;;;;3.40;3.10;;;20.70;69.40;;;;;;4938993;29;20091;-63
2023/08/05 09:32:44;;;;;;;3.20;3.00;;;20.70;70.80;;;;;;4930596;28;20047;-60
2023/08/05 09:35:10;;;;;;;3.80;3.50;;;20.70;69.50;;;;;;4928439;28;20388;-63
2023/08/05 09:37:39;;;;;;;4.05;3.38;;;20.70;69.80;;;;;;4930001;28;20052;-63
2023/08/05 09:40:18;;;;;;;4.38;3.40;;;20.80;70.10;;;;;;4937529;28;20036;-63
2023/08/05 09:42:48;;;;;;;3.70;3.40;;;20.80;68.90;;;;;;4928987;28;20070;-63
2023/08/05 09:45:15;;;;;;;3.85;3.53;;;20.90;70.40;;;;;;4931437;28;20431;-62
2023/08/05 09:47:50;;;;;;;3.90;3.50;;;21.00;71.20;;;;;;4928540;28;20898;-63
2023/08/05 09:50:18;;;;;;;3.80;3.40;;;21.00;69.90;;;;;;4935822;28;20101;-63
2023/08/05 09:52:43;;;;;;;3.22;3.00;;;21.10;68.40;;;;;;4942557;28;20055;-62
2023/08/05 09:55:14;;;;;;;3.03;2.75;;;21.10;68.30;;;;;;4941703;28;20073;-62
2023/08/05 09:57:43;;;;;;;3.20;3.00;;;21.10;67.90;;;;;;4941501;29;20043;-63
2023/08/05 10:00:11;;;;;;;3.92;3.35;;;21.00;67.40;;;;;;4941315;28;20085;-63
2023/08/05 10:02:46;;;;;;;3.90;3.55;;;21.00;68.20;;;;;;4941406;28;20031;-61
2023/08/05 10:05:13;;;;;;;2.90;2.60;;;21.00;67.80;;;;;;4941716;29;20039;-63
2023/08/05 10:07:40;;;;;;;3.42;2.63;;;21.00;68.50;;;;;;4940871;28;20105;-63
2023/08/05 10:10:08;;;;;;;2.60;2.40;;;21.00;67.60;;;;;;4942429;28;20094;-62
2023/08/05 10:12:45;;;;;;;3.13;2.92;;;21.00;67.30;;;;;;4942356;28;20512;-63
2023/08/05 10:15:19;;;;;;;3.92;3.25;;;21.00;66.60;;;;;;4941138;28;20028;-61
2023/08/05 10:17:46;;;;;;;4.20;3.22;;;20.90;67.20;;;;;;4942053;28;20182;-62
2023/08/05 10:20:12;;;;;;;5.45;3.58;;;20.90;67.40;;;;;;4942192;28;20118;-63
2023/08/05 10:22:41;;;;;;;3.58;3.28;;;20.90;68.10;;;;;;4938712;29;20039;-62
2023/08/05 10:25:07;;;;;;;3.45;3.22;;;20.90;68.60;;;;;;4939880;28;20094;-61
2023/08/05 10:27:41;;;;;;;3.60;3.30;;;20.90;69.20;;;;;;4941482;28;20035;-63
2023/08/05 10:30:10;;;;;;;3.00;2.70;;;20.90;68.80;;;;;;4938865;28;20098;-62
2023/08/05 10:32:48;;;;;;;3.45;3.10;;;20.90;69.00;;;;;;4938777;28;20411;-61
2023/08/05 10:35:31;;;;;;;2.90;2.70;;;20.90;66.70;;;;;;4943398;28;20415;-63
2023/08/05 10:38:09;;;;;;;3.15;2.85;;;20.90;66.40;;;;;;4940453;28;20118;-63
2023/08/05 10:41:00;;;;;;;3.05;2.30;;;20.90;66.50;;;;;;4940276;28;20042;-62
2023/08/05 10:43:27;;;;;;;2.60;2.40;;;21.00;67.30;;;;;;4941149;28;20054;-63
2023/08/05 10:45:53;;;;;;;2.67;2.47;;;20.90;67.40;;;;;;4940533;28;20031;-63
2023/08/05 10:48:19;;;;;;;2.70;2.50;;;21.00;68.10;;;;;;4939542;28;20043;-63
2023/08/05 10:50:47;;;;;;;2.53;2.33;;;21.00;67.80;;;;;;4940419;28;20050;-62
2023/08/05 10:53:13;;;;;;;2.40;2.20;;;21.00;67.50;;;;;;4939887;28;20036;-62
2023/08/05 10:55:46;;;;;;;2.40;2.20;;;21.00;67.30;;;;;;4938911;28;20099;-61
2023/08/05 10:58:12;;;;;;;2.10;1.92;;;21.10;67.10;;;;;;4939706;28;20036;-62
2023/08/05 11:00:39;;;;;;;2.30;2.10;;;21.20;67.50;;;;;;4939312;28;20057;-63
2023/08/05 11:03:25;;;;;;;2.47;2.28;;;21.20;67.80;;;;;;4939671;28;20031;-61
2023/08/05 11:05:53;;;;;;;2.75;2.10;;;21.30;67.30;;;;;;4939578;28;20028;-63
2023/08/05 11:08:23;;;;;;;2.35;2.15;;;21.40;66.90;;;;;;4939659;28;20036;-63
2023/08/05 11:10:49;;;;;;;2.72;2.00;;;21.40;65.80;;;;;;4940837;28;20074;-63
2023/08/05 11:13:16;;;;;;;6.50;2.30;;;21.40;65.80;;;;;;4940307;28;20039;-63
2023/08/05 11:15:58;;;;;;;2.10;1.75;;;21.40;65.30;;;;;;4940339;28;20283;-63
2023/08/05 11:18:23;;;;;;;2.00;1.90;;;21.40;65.90;;;;;;4936774;28;20101;-62
2023/08/05 11:20:49;;;;;;;2.40;2.20;;;21.40;66.20;;;;;;4938841;28;20028;-62
2023/08/05 11:23:15;;;;;;;2.60;2.30;;;21.40;66.20;;;;;;4940982;28;20032;-62
2023/08/05 11:25:44;;;;;;;2.28;2.08;;;21.40;66.30;;;;;;4937462;28;20423;-62
2023/08/05 11:28:10;;;;;;;3.10;2.67;;;21.50;66.20;;;;;;4939729;28;20038;-62
2023/08/05 11:30:38;;;;;;;3.05;2.20;;;21.60;65.90;;;;;;4939193;28;20039;-62
2023/08/05 11:33:05;;;;;;;2.40;2.30;;;21.60;65.70;;;;;;4938434;28;20399;-62
2023/08/05 11:35:31;;;;;;;2.95;2.60;;;21.60;65.30;;;;;;4939106;28;20044;-62
2023/08/05 11:37:57;;;;;;;2.60;2.40;;;21.60;65.00;;;;;;4938880;28;20050;-63
2023/08/05 11:40:23;;;;;;;3.53;2.35;;;21.60;65.20;;;;;;4940794;28;20071;-63
2023/08/05 11:42:49;;;;;;;2.50;2.30;;;21.60;65.70;;;;;;4938707;28;20488;-64
2023/08/05 11:45:15;;;;;;;2.80;2.55;;;21.60;66.40;;;;;;4938764;28;20043;-62
2023/08/05 11:47:42;;;;;;;2.75;2.38;;;21.60;66.60;;;;;;4938752;28;20028;-62
2023/08/05 11:50:09;;;;;;;2.28;2.13;;;21.70;66.70;;;;;;4939486;28;20043;-62
2023/08/05 11:52:36;;;;;;;2.42;2.22;;;21.70;66.90;;;;;;4938137;28;20134;-63
2023/08/05 11:55:05;;;;;;;2.15;1.95;;;21.80;67.00;;;;;;4940258;28;20117;-63
2023/08/05 11:57:30;;;;;;;2.50;2.30;;;21.80;66.90;;;;;;4940161;28;20047;-63
2023/08/05 12:00:08;;;;;;;2.25;2.05;;;21.90;66.90;;;;;;4938019;28;20130;-64
2023/08/05 12:02:36;;;;;;;2.80;2.20;;;21.90;66.30;;;;;;4939364;28;20031;-64
2023/08/05 12:05:03;;;;;;;2.40;2.20;;;21.90;66.20;;;;;;4936833;28;20031;-64
2023/08/05 12:07:29;;;;;;;2.42;2.22;;;21.90;66.20;;;;;;4937765;28;20040;-63
2023/08/05 12:10:14;;;;;;;2.38;2.22;;;21.90;66.20;;;;;;4939040;28;20046;-63
2023/08/05 12:12:47;;;;;;;7.10;2.47;;;21.90;66.40;;;;;;4938462;28;20042;-63
2023/08/05 12:15:27;;;;;;;2.53;2.33;;;21.90;66.50;;;;;;4939152;28;20062;-64
2023/08/05 12:18:03;;;;;;;6.30;2.65;;;21.90;66.40;;;;;;4938836;28;20089;-64
2023/08/05 12:20:31;;;;;;;2.35;2.15;;;21.90;66.00;;;;;;4938464;28;20519;-63
2023/08/05 12:22:58;;;;;;;2.92;2.38;;;21.90;66.20;;;;;;4938764;28;20046;-63
2023/08/05 12:25:25;;;;;;;3.45;2.58;;;22.00;66.40;;;;;;4939592;28;20067;-62
2023/08/05 12:27:51;;;;;;;2.58;2.38;;;22.00;66.20;;;;;;4938831;28;20448;-62
2023/08/05 12:30:17;;;;;;;2.33;2.10;;;22.00;66.50;;;;;;4935614;28;20123;-63
2023/08/05 12:32:42;;;;;;;2.05;1.95;;;22.00;66.20;;;;;;4937726;28;20143;-62
2023/08/05 12:35:10;;;;;;;4.00;2.30;;;22.10;66.20;;;;;;4938864;28;20070;-63
2023/08/05 12:37:37;;;;;;;2.15;1.98;;;22.10;65.90;;;;;;4938224;28;20039;-62
2023/08/05 12:40:04;;;;;;;3.70;2.28;;;22.20;65.90;;;;;;4938779;28;20035;-62
2023/08/05 12:42:30;;;;;;;2.50;2.30;;;22.20;65.90;;;;;;4938064;28;20423;-63
2023/08/05 12:44:59;;;;;;;2.53;2.28;;;22.20;66.00;;;;;;4938915;28;20035;-64